PWSweather.com
Personal Weather Stations
Station Observations
WAIROAHB
Wairoa, Northern Hawkes Bay -NZ 4108

WairoaNorthern Hawkes Bay -NZ 4108

Lat: -39.04516934, Lon: 177.4263989

Elevation: 156

Station Type: WS3083

http://wairoa.net/weather/index.htm

High Low Average
Temperature 71.6°F22.0°C 61.0°F16.1°C 65.9°F18.8°C
Dew Point 67.6°F19.8°C 60.4°F15.8°C 64.8°F18.2°C
Winds 18.3 mph 29.5 kmh Calm Calm 9.0 mph SW14.5 kmh SW
Wind Gusts 27.3 mph43.9 kmh -- 17.0 mph27.4 kmh
Humidity 99% 82% 96%
Pressure 29.73 in1006.8 mb 29.69 in1005.4 mb -
Precipitation 0.60 in15.2 mm - -
Hour Temp Dew Point Humidity Winds Wind Gusts Pressure Precip Precip Rate Daily Precip Total
12:00 AM 63.7°F17.6°C 62.8°F17.1°C 97% Calm Calm 3.8 mph6.1 kmh 29.73 in1006.8 mb 0.00 in0.0 mm 0.00 in0.0 mm 0.00 in0.0 mm
12:10 AM 63.5°F17.5°C 62.7°F17.1°C 97% Calm Calm 2.2 mph3.5 kmh 29.73 in1006.8 mb 0.00 in0.0 mm 0.00 in0.0 mm 0.00 in0.0 mm
12:20 AM 63.3°F17.4°C 62.5°F16.9°C 97% Calm Calm 1.6 mph2.6 kmh 29.73 in1006.8 mb 0.00 in0.0 mm 0.00 in0.0 mm 0.00 in0.0 mm
12:30 AM 63.5°F17.5°C 62.7°F17.1°C 97% Calm Calm 3.1 mph5.0 kmh 29.73 in1006.8 mb 0.00 in0.0 mm 0.00 in0.0 mm 0.00 in0.0 mm
12:40 AM 63.7°F17.6°C 62.8°F17.1°C 97% Calm Calm -- 29.73 in1006.8 mb 0.00 in0.0 mm 0.00 in0.0 mm 0.00 in0.0 mm
12:50 AM 63.9°F17.7°C 63.0°F17.2°C 97% Calm Calm 4.5 mph7.2 kmh 29.73 in1006.8 mb 0.00 in0.0 mm 0.00 in0.0 mm 0.00 in0.0 mm
01:00 AM 64.2°F17.9°C 63.4°F17.4°C 97% 4.5 mph WSW7.2 kmh WSW 12.1 mph19.5 kmh 29.73 in1006.8 mb 0.00 in0.0 mm 0.00 in0.0 mm 0.00 in0.0 mm
01:10 AM 64.2°F17.9°C 63.4°F17.4°C 97% 5.4 mph WSW8.7 kmh WSW 13.0 mph20.9 kmh 29.73 in1006.8 mb 0.00 in0.0 mm 0.00 in0.0 mm 0.00 in0.0 mm
01:20 AM 64.6°F18.1°C 64.3°F17.9°C 99% 12.1 mph WSW19.5 kmh WSW 15.9 mph25.6 kmh 29.73 in1006.8 mb 0.01 in0.3 mm 0.06 in1.5 mm 0.01 in0.3 mm
01:30 AM 64.4°F18.0°C 64.1°F17.8°C 99% 9.8 mph WSW15.8 kmh WSW 16.8 mph27.0 kmh 29.73 in1006.8 mb 0.01 in0.3 mm 0.00 in0.0 mm 0.01 in0.3 mm
01:40 AM 63.9°F17.7°C 63.0°F17.2°C 97% 10.7 mph SW17.2 kmh SW 16.8 mph27.0 kmh 29.72 in1006.4 mb 0.01 in0.3 mm 0.00 in0.0 mm 0.01 in0.3 mm
01:50 AM 63.5°F17.5°C 62.7°F17.1°C 97% 11.4 mph W18.3 kmh W 21.3 mph34.3 kmh 29.72 in1006.4 mb 0.01 in0.3 mm 0.00 in0.0 mm 0.01 in0.3 mm
02:00 AM 63.3°F17.4°C 62.5°F16.9°C 97% 11.4 mph WSW18.3 kmh WSW 22.1 mph35.6 kmh 29.72 in1006.4 mb 0.01 in0.3 mm 0.00 in0.0 mm 0.01 in0.3 mm
02:10 AM 63.3°F17.4°C 62.5°F16.9°C 97% 11.4 mph WSW18.3 kmh WSW 24.4 mph39.3 kmh 29.72 in1006.4 mb 0.01 in0.3 mm 0.00 in0.0 mm 0.01 in0.3 mm
02:20 AM 63.3°F17.4°C 62.5°F16.9°C 97% 5.4 mph W8.7 kmh W 20.6 mph33.2 kmh 29.71 in1006.1 mb 0.00 in0.0 mm 0.00 in0.0 mm 0.01 in0.3 mm
02:30 AM 63.1°F17.3°C 62.3°F16.8°C 97% 9.8 mph SW15.8 kmh SW 19.0 mph30.6 kmh 29.71 in1006.1 mb 0.00 in0.0 mm 0.00 in0.0 mm 0.01 in0.3 mm
02:40 AM 63.1°F17.3°C 62.3°F16.8°C 97% 13.6 mph SW21.9 kmh SW 18.3 mph29.5 kmh 29.70 in1005.8 mb 0.00 in0.0 mm 0.00 in0.0 mm 0.01 in0.3 mm
02:50 AM 63.3°F17.4°C 62.5°F16.9°C 97% 9.2 mph SW14.8 kmh SW 22.1 mph35.6 kmh 29.70 in1005.8 mb 0.00 in0.0 mm 0.00 in0.0 mm 0.01 in0.3 mm
03:00 AM 63.1°F17.3°C 62.3°F16.8°C 97% 14.5 mph WSW23.3 kmh WSW 22.1 mph35.6 kmh 29.70 in1005.8 mb 0.00 in0.0 mm 0.00 in0.0 mm 0.01 in0.3 mm
03:10 AM 63.0°F17.2°C 62.1°F16.7°C 97% 9.2 mph WSW14.8 kmh WSW 24.4 mph39.3 kmh 29.70 in1005.8 mb 0.00 in0.0 mm 0.00 in0.0 mm 0.01 in0.3 mm
03:20 AM 62.6°F17.0°C 61.8°F16.6°C 97% 15.9 mph WSW25.6 kmh WSW 25.1 mph40.4 kmh 29.70 in1005.8 mb 0.00 in0.0 mm 0.00 in0.0 mm 0.01 in0.3 mm
03:30 AM 62.6°F17.0°C 61.8°F16.6°C 97% 16.8 mph SW27.0 kmh SW 25.1 mph40.4 kmh 29.71 in1006.1 mb 0.00 in0.0 mm 0.00 in0.0 mm 0.01 in0.3 mm
03:40 AM 62.6°F17.0°C 61.8°F16.6°C 97% 12.1 mph WSW19.5 kmh WSW 22.1 mph35.6 kmh 29.70 in1005.8 mb 0.00 in0.0 mm 0.00 in0.0 mm 0.01 in0.3 mm
03:50 AM 62.8°F17.1°C 61.9°F16.6°C 97% 12.1 mph WSW19.5 kmh WSW 22.1 mph35.6 kmh 29.70 in1005.8 mb 0.00 in0.0 mm 0.00 in0.0 mm 0.01 in0.3 mm
04:00 AM 63.1°F17.3°C 62.3°F16.8°C 97% 13.6 mph WSW21.9 kmh WSW 23.5 mph37.8 kmh 29.70 in1005.8 mb 0.00 in0.0 mm 0.00 in0.0 mm 0.01 in0.3 mm
04:10 AM 62.8°F17.1°C 61.9°F16.6°C 97% 13.0 mph WSW20.9 kmh WSW 23.5 mph37.8 kmh 29.71 in1006.1 mb 0.00 in0.0 mm 0.00 in0.0 mm 0.01 in0.3 mm
04:20 AM 62.8°F17.1°C 61.9°F16.6°C 97% 11.4 mph WSW18.3 kmh WSW 26.6 mph42.8 kmh 29.70 in1005.8 mb 0.01 in0.3 mm 0.06 in1.5 mm 0.02 in0.5 mm
04:30 AM 62.4°F16.9°C 61.9°F16.6°C 98% 12.1 mph SW19.5 kmh SW 21.3 mph34.3 kmh 29.70 in1005.8 mb 0.02 in0.5 mm 0.06 in1.5 mm 0.04 in1.0 mm
04:40 AM 62.2°F16.8°C 61.7°F16.5°C 98% 15.9 mph WSW25.6 kmh WSW 26.6 mph42.8 kmh 29.71 in1006.1 mb 0.04 in1.0 mm 0.12 in3.0 mm 0.05 in1.3 mm
04:50 AM 62.1°F16.7°C 61.5°F16.4°C 98% 12.1 mph WSW19.5 kmh WSW 22.8 mph36.7 kmh 29.70 in1005.8 mb 0.09 in2.3 mm 0.30 in7.6 mm 0.11 in2.8 mm
05:00 AM 61.7°F16.5°C 61.1°F16.2°C 98% 10.7 mph WSW17.2 kmh WSW 23.5 mph37.8 kmh 29.70 in1005.8 mb 0.14 in3.6 mm 0.06 in1.5 mm 0.15 in3.8 mm
05:10 AM 61.7°F16.5°C 61.1°F16.2°C 98% 8.3 mph W13.4 kmh W 22.1 mph35.6 kmh 29.69 in1005.4 mb 0.21 in5.3 mm 0.42 in10.7 mm 0.22 in5.6 mm
05:20 AM 61.5°F16.4°C 61.0°F16.1°C 98% 11.4 mph W18.3 kmh W 27.3 mph43.9 kmh 29.70 in1005.8 mb 0.21 in5.3 mm 0.00 in0.0 mm 0.24 in6.1 mm
05:30 AM 61.5°F16.4°C 61.0°F16.1°C 98% 9.2 mph W14.8 kmh W 20.6 mph33.2 kmh 29.69 in1005.4 mb 0.21 in5.3 mm 0.00 in0.0 mm 0.25 in6.4 mm
05:40 AM 61.7°F16.5°C 61.1°F16.2°C 98% 14.5 mph WSW23.3 kmh WSW 19.0 mph30.6 kmh 29.69 in1005.4 mb 0.21 in5.3 mm 0.00 in0.0 mm 0.26 in6.6 mm
05:50 AM 62.2°F16.8°C 61.7°F16.5°C 98% 15.9 mph WSW25.6 kmh WSW 22.1 mph35.6 kmh 29.69 in1005.4 mb 0.15 in3.8 mm 0.00 in0.0 mm 0.26 in6.6 mm
06:00 AM 61.9°F16.6°C 61.3°F16.3°C 98% 10.7 mph WSW17.2 kmh WSW 22.8 mph36.7 kmh 29.70 in1005.8 mb 0.09 in2.3 mm 0.00 in0.0 mm 0.26 in6.6 mm
06:10 AM 61.5°F16.4°C 61.0°F16.1°C 98% 9.8 mph WSW15.8 kmh WSW 22.1 mph35.6 kmh 29.69 in1005.4 mb 0.06 in1.5 mm 0.00 in0.0 mm 0.28 in7.1 mm
06:20 AM 61.3°F16.3°C 60.8°F16.0°C 98% 12.1 mph WSW19.5 kmh WSW 24.4 mph39.3 kmh 29.70 in1005.8 mb 0.05 in1.3 mm 0.00 in0.0 mm 0.28 in7.1 mm
06:30 AM 61.0°F16.1°C 60.4°F15.8°C 98% 9.2 mph W14.8 kmh W 19.0 mph30.6 kmh 29.69 in1005.4 mb 0.04 in1.0 mm 0.00 in0.0 mm 0.28 in7.1 mm
06:40 AM 61.3°F16.3°C 60.8°F16.0°C 98% 6.9 mph WNW11.1 kmh WNW 14.5 mph23.3 kmh 29.69 in1005.4 mb 0.02 in0.5 mm 0.00 in0.0 mm 0.28 in7.1 mm
06:50 AM 62.1°F16.7°C 61.5°F16.4°C 98% 6.0 mph WSW9.7 kmh WSW 12.1 mph19.5 kmh 29.70 in1005.8 mb 0.02 in0.5 mm 0.00 in0.0 mm 0.28 in7.1 mm
07:00 AM 63.0°F17.2°C 62.1°F16.7°C 97% 6.9 mph WSW11.1 kmh WSW 9.8 mph15.8 kmh 29.70 in1005.8 mb 0.02 in0.5 mm 0.00 in0.0 mm 0.28 in7.1 mm
07:10 AM 64.0°F17.8°C 63.2°F17.3°C 97% 6.0 mph WSW9.7 kmh WSW 12.1 mph19.5 kmh 29.70 in1005.8 mb 0.01 in0.3 mm 0.00 in0.0 mm 0.30 in7.6 mm
07:20 AM 64.6°F18.1°C 64.3°F17.9°C 99% 6.0 mph W9.7 kmh W 13.0 mph20.9 kmh 29.70 in1005.8 mb 0.01 in0.3 mm 0.00 in0.0 mm 0.30 in7.6 mm
07:30 AM 65.3°F18.5°C 65.0°F18.3°C 99% 9.2 mph SW14.8 kmh SW 15.9 mph25.6 kmh 29.70 in1005.8 mb 0.01 in0.3 mm 0.00 in0.0 mm 0.30 in7.6 mm
07:40 AM 64.9°F18.3°C 64.7°F18.2°C 99% 14.5 mph WSW23.3 kmh WSW 22.1 mph35.6 kmh 29.70 in1005.8 mb 0.04 in1.0 mm 0.18 in4.6 mm 0.32 in8.1 mm
07:50 AM 64.9°F18.3°C 64.7°F18.2°C 99% 13.0 mph W20.9 kmh W 22.8 mph36.7 kmh 29.71 in1006.1 mb 0.13 in3.3 mm 0.54 in13.7 mm 0.41 in10.4 mm
08:00 AM 63.7°F17.6°C 62.8°F17.1°C 97% 15.9 mph NW25.6 kmh NW 24.4 mph39.3 kmh 29.71 in1006.1 mb 0.18 in4.6 mm 0.06 in1.5 mm 0.46 in11.7 mm
08:10 AM 64.0°F17.8°C 63.2°F17.3°C 97% 10.7 mph SW17.2 kmh SW 19.0 mph30.6 kmh 29.71 in1006.1 mb 0.18 in4.6 mm 0.00 in0.0 mm 0.47 in11.9 mm
08:20 AM 64.4°F18.0°C 64.1°F17.8°C 99% 9.8 mph WSW15.8 kmh WSW 17.4 mph28.0 kmh 29.71 in1006.1 mb 0.19 in4.8 mm 0.06 in1.5 mm 0.48 in12.2 mm
08:30 AM 64.4°F18.0°C 64.1°F17.8°C 99% 6.9 mph SW11.1 kmh SW 18.3 mph29.5 kmh 29.70 in1005.8 mb 0.21 in5.3 mm 0.12 in3.0 mm 0.51 in13.0 mm
08:40 AM 64.6°F18.1°C 64.3°F17.9°C 99% 9.8 mph NW15.8 kmh NW 15.2 mph24.5 kmh 29.70 in1005.8 mb 0.19 in4.8 mm 0.00 in0.0 mm 0.51 in13.0 mm
08:50 AM 65.3°F18.5°C 65.0°F18.3°C 99% 11.4 mph WNW18.3 kmh WNW 19.0 mph30.6 kmh 29.70 in1005.8 mb 0.11 in2.8 mm 0.00 in0.0 mm 0.52 in13.2 mm
09:00 AM 64.6°F18.1°C 64.3°F17.9°C 99% 9.8 mph SW15.8 kmh SW 19.0 mph30.6 kmh 29.71 in1006.1 mb 0.07 in1.8 mm 0.00 in0.0 mm 0.53 in13.5 mm
09:10 AM 64.2°F17.9°C 63.4°F17.4°C 97% 8.3 mph S13.4 kmh S 17.4 mph28.0 kmh 29.71 in1006.1 mb 0.06 in1.5 mm 0.00 in0.0 mm 0.53 in13.5 mm
09:20 AM 65.5°F18.6°C 65.2°F18.4°C 99% 12.1 mph NNE19.5 kmh NNE 19.0 mph30.6 kmh 29.71 in1006.1 mb 0.04 in1.0 mm 0.00 in0.0 mm 0.53 in13.5 mm
09:30 AM 66.0°F18.9°C 65.8°F18.8°C 99% 7.6 mph ENE12.2 kmh ENE 19.0 mph30.6 kmh 29.71 in1006.1 mb 0.02 in0.5 mm 0.00 in0.0 mm 0.53 in13.5 mm
09:40 AM 65.1°F18.4°C 64.9°F18.3°C 99% 9.2 mph ENE14.8 kmh ENE 15.2 mph24.5 kmh 29.71 in1006.1 mb 0.02 in0.5 mm 0.00 in0.0 mm 0.53 in13.5 mm
09:50 AM 65.7°F18.7°C 65.4°F18.6°C 99% 6.9 mph ENE11.1 kmh ENE 16.8 mph27.0 kmh 29.71 in1006.1 mb 0.02 in0.5 mm 0.00 in0.0 mm 0.54 in13.7 mm
10:00 AM 65.8°F18.8°C 65.6°F18.7°C 99% 9.8 mph ESE15.8 kmh ESE 13.6 mph21.9 kmh 29.71 in1006.1 mb 0.01 in0.3 mm 0.00 in0.0 mm 0.54 in13.7 mm
10:10 AM 64.9°F18.3°C 64.7°F18.2°C 99% 6.9 mph ENE11.1 kmh ENE 12.1 mph19.5 kmh 29.72 in1006.4 mb 0.02 in0.5 mm 0.06 in1.5 mm 0.56 in14.2 mm
10:20 AM 65.3°F18.5°C 65.0°F18.3°C 99% 7.6 mph N12.2 kmh N 14.5 mph23.3 kmh 29.72 in1006.4 mb 0.02 in0.5 mm 0.00 in0.0 mm 0.56 in14.2 mm
10:30 AM 66.0°F18.9°C 65.8°F18.8°C 99% 3.8 mph NE6.1 kmh NE 13.0 mph20.9 kmh 29.72 in1006.4 mb 0.02 in0.5 mm 0.00 in0.0 mm 0.56 in14.2 mm
10:40 AM 66.4°F19.1°C 66.1°F18.9°C 99% 3.1 mph ENE5.0 kmh ENE 7.6 mph12.2 kmh 29.72 in1006.4 mb 0.02 in0.5 mm 0.00 in0.0 mm 0.56 in14.2 mm
10:50 AM 66.4°F19.1°C 66.1°F18.9°C 99% 3.8 mph SE6.1 kmh SE 9.2 mph14.8 kmh 29.72 in1006.4 mb 0.01 in0.3 mm 0.00 in0.0 mm 0.56 in14.2 mm
11:00 AM 66.6°F19.2°C 66.3°F19.1°C 99% 4.5 mph E7.2 kmh E 9.2 mph14.8 kmh 29.73 in1006.8 mb 0.01 in0.3 mm 0.00 in0.0 mm 0.56 in14.2 mm
11:10 AM 67.3°F19.6°C 67.0°F19.4°C 99% 5.4 mph SE8.7 kmh SE 9.2 mph14.8 kmh 29.72 in1006.4 mb 0.00 in0.0 mm 0.00 in0.0 mm 0.56 in14.2 mm
11:20 AM 67.6°F19.8°C 67.4°F19.7°C 99% 3.1 mph ESE5.0 kmh ESE 8.3 mph13.4 kmh 29.72 in1006.4 mb 0.00 in0.0 mm 0.00 in0.0 mm 0.56 in14.2 mm
11:30 AM 68.2°F20.1°C 67.6°F19.8°C 98% 6.0 mph NNE9.7 kmh NNE 10.7 mph17.2 kmh 29.73 in1006.8 mb 0.00 in0.0 mm 0.00 in0.0 mm 0.56 in14.2 mm
11:40 AM 68.2°F20.1°C 66.7°F19.3°C 95% 6.9 mph SE11.1 kmh SE 11.4 mph18.3 kmh 29.72 in1006.4 mb 0.00 in0.0 mm 0.00 in0.0 mm 0.56 in14.2 mm
11:50 AM 68.4°F20.2°C 66.3°F19.1°C 93% 6.0 mph N9.7 kmh N 11.4 mph18.3 kmh 29.73 in1006.8 mb 0.00 in0.0 mm 0.00 in0.0 mm 0.56 in14.2 mm
12:00 PM 68.7°F20.4°C 66.0°F18.9°C 91% 8.3 mph N13.4 kmh N 14.5 mph23.3 kmh 29.72 in1006.4 mb 0.00 in0.0 mm 0.00 in0.0 mm 0.56 in14.2 mm
12:10 PM 69.1°F20.6°C 65.7°F18.7°C 89% 5.4 mph N8.7 kmh N 14.5 mph23.3 kmh 29.72 in1006.4 mb 0.00 in0.0 mm 0.00 in0.0 mm 0.56 in14.2 mm
12:20 PM 68.9°F20.5°C 66.2°F19.0°C 91% 4.5 mph SSW7.2 kmh SSW 12.1 mph19.5 kmh 29.72 in1006.4 mb 0.00 in0.0 mm 0.00 in0.0 mm 0.56 in14.2 mm
12:30 PM 70.2°F21.2°C 65.8°F18.8°C 86% 6.9 mph NE11.1 kmh NE 15.2 mph24.5 kmh 29.72 in1006.4 mb 0.00 in0.0 mm 0.00 in0.0 mm 0.56 in14.2 mm
12:40 PM 71.2°F21.8°C 65.8°F18.8°C 83% 6.9 mph ENE11.1 kmh ENE 11.4 mph18.3 kmh 29.73 in1006.8 mb 0.00 in0.0 mm 0.00 in0.0 mm 0.56 in14.2 mm
12:50 PM 70.9°F21.6°C 65.8°F18.8°C 84% 4.5 mph NNE7.2 kmh NNE 11.4 mph18.3 kmh 29.72 in1006.4 mb 0.01 in0.3 mm 0.06 in1.5 mm 0.57 in14.5 mm
01:00 PM 70.5°F21.4°C 65.8°F18.8°C 85% 6.9 mph SE11.1 kmh SE 13.0 mph20.9 kmh 29.73 in1006.8 mb 0.01 in0.3 mm 0.00 in0.0 mm 0.57 in14.5 mm
01:10 PM 70.5°F21.4°C 65.1°F18.4°C 83% 4.5 mph ESE7.2 kmh ESE 13.0 mph20.9 kmh 29.72 in1006.4 mb 0.01 in0.3 mm 0.00 in0.0 mm 0.57 in14.5 mm
01:20 PM 70.2°F21.2°C 65.1°F18.4°C 84% 6.0 mph ENE9.7 kmh ENE 11.4 mph18.3 kmh 29.72 in1006.4 mb 0.01 in0.3 mm 0.00 in0.0 mm 0.57 in14.5 mm
01:30 PM 68.4°F20.2°C 65.7°F18.7°C 91% 3.1 mph N5.0 kmh N 13.0 mph20.9 kmh 29.72 in1006.4 mb 0.02 in0.5 mm 0.06 in1.5 mm 0.58 in14.7 mm
01:40 PM 68.4°F20.2°C 66.6°F19.2°C 94% 3.8 mph SW6.1 kmh SW 8.3 mph13.4 kmh 29.72 in1006.4 mb 0.02 in0.5 mm 0.00 in0.0 mm 0.58 in14.7 mm
01:50 PM 69.3°F20.7°C 67.2°F19.6°C 93% 7.6 mph N12.2 kmh N 15.9 mph25.6 kmh 29.72 in1006.4 mb 0.01 in0.3 mm 0.00 in0.0 mm 0.58 in14.7 mm
02:00 PM 70.9°F21.6°C 66.2°F19.0°C 85% 10.7 mph WSW17.2 kmh WSW 18.3 mph29.5 kmh 29.71 in1006.1 mb 0.01 in0.3 mm 0.00 in0.0 mm 0.58 in14.7 mm
02:10 PM 71.6°F22.0°C 66.2°F19.0°C 83% 6.9 mph N11.1 kmh N 15.9 mph25.6 kmh 29.71 in1006.1 mb 0.01 in0.3 mm 0.00 in0.0 mm 0.58 in14.7 mm
02:20 PM 71.6°F22.0°C 65.8°F18.8°C 82% 11.4 mph WNW18.3 kmh WNW 21.3 mph34.3 kmh 29.71 in1006.1 mb 0.01 in0.3 mm 0.00 in0.0 mm 0.58 in14.7 mm
02:30 PM 70.9°F21.6°C 65.8°F18.8°C 84% 9.2 mph WNW14.8 kmh WNW 19.7 mph31.7 kmh 29.72 in1006.4 mb 0.00 in0.0 mm 0.00 in0.0 mm 0.58 in14.7 mm
02:40 PM 68.7°F20.4°C 66.3°F19.1°C 92% 8.3 mph W13.4 kmh W 19.7 mph31.7 kmh 29.71 in1006.1 mb 0.00 in0.0 mm 0.00 in0.0 mm 0.58 in14.7 mm
02:50 PM 69.6°F20.9°C 66.9°F19.4°C 91% 12.1 mph WSW19.5 kmh WSW 20.6 mph33.2 kmh 29.70 in1005.8 mb 0.00 in0.0 mm 0.00 in0.0 mm 0.58 in14.7 mm
03:00 PM 70.5°F21.4°C 66.8°F19.3°C 88% 11.4 mph WNW18.3 kmh WNW 19.0 mph30.6 kmh 29.71 in1006.1 mb 0.00 in0.0 mm 0.00 in0.0 mm 0.58 in14.7 mm
03:10 PM 69.8°F21.0°C 66.8°F19.3°C 90% 14.5 mph W23.3 kmh W 21.3 mph34.3 kmh 29.71 in1006.1 mb 0.00 in0.0 mm 0.00 in0.0 mm 0.58 in14.7 mm
03:20 PM 69.6°F20.9°C 67.2°F19.6°C 92% 10.7 mph W17.2 kmh W 21.3 mph34.3 kmh 29.71 in1006.1 mb 0.00 in0.0 mm 0.00 in0.0 mm 0.58 in14.7 mm
03:30 PM 69.3°F20.7°C 66.9°F19.4°C 92% 10.7 mph W17.2 kmh W 20.6 mph33.2 kmh 29.71 in1006.1 mb 0.00 in0.0 mm 0.00 in0.0 mm 0.58 in14.7 mm
03:40 PM 68.4°F20.2°C 66.6°F19.2°C 94% 14.5 mph SW23.3 kmh SW 23.5 mph37.8 kmh 29.71 in1006.1 mb 0.00 in0.0 mm 0.00 in0.0 mm 0.58 in14.7 mm
03:50 PM 68.0°F20.0°C 66.5°F19.2°C 95% 18.3 mph WSW29.5 kmh WSW 22.8 mph36.7 kmh 29.71 in1006.1 mb 0.00 in0.0 mm 0.00 in0.0 mm 0.58 in14.7 mm
04:00 PM 67.8°F19.9°C 66.4°F19.1°C 95% 13.6 mph WSW21.9 kmh WSW 22.8 mph36.7 kmh 29.70 in1005.8 mb 0.00 in0.0 mm 0.00 in0.0 mm 0.58 in14.7 mm
04:10 PM 68.2°F20.1°C 66.4°F19.1°C 94% 17.4 mph WSW28.0 kmh WSW 23.5 mph37.8 kmh 29.70 in1005.8 mb 0.00 in0.0 mm 0.00 in0.0 mm 0.58 in14.7 mm
04:20 PM 68.5°F20.3°C 66.8°F19.3°C 94% 13.6 mph WSW21.9 kmh WSW 22.8 mph36.7 kmh 29.71 in1006.1 mb 0.00 in0.0 mm 0.00 in0.0 mm 0.58 in14.7 mm
04:30 PM 68.4°F20.2°C 66.3°F19.1°C 93% 9.8 mph WSW15.8 kmh WSW 24.4 mph39.3 kmh 29.71 in1006.1 mb 0.00 in0.0 mm 0.00 in0.0 mm 0.58 in14.7 mm
04:40 PM 68.2°F20.1°C 66.1°F18.9°C 93% 15.9 mph WSW25.6 kmh WSW 25.9 mph41.7 kmh 29.71 in1006.1 mb 0.00 in0.0 mm 0.00 in0.0 mm 0.58 in14.7 mm
04:50 PM 67.5°F19.7°C 66.0°F18.9°C 95% 16.8 mph SW27.0 kmh SW 20.6 mph33.2 kmh 29.71 in1006.1 mb 0.00 in0.0 mm 0.00 in0.0 mm 0.58 in14.7 mm
05:00 PM 67.3°F19.6°C 66.1°F18.9°C 96% 13.0 mph WSW20.9 kmh WSW 22.1 mph35.6 kmh 29.70 in1005.8 mb 0.00 in0.0 mm 0.00 in0.0 mm 0.58 in14.7 mm
05:10 PM 67.3°F19.6°C 66.1°F18.9°C 96% 12.1 mph WSW19.5 kmh WSW 19.7 mph31.7 kmh 29.70 in1005.8 mb 0.00 in0.0 mm 0.00 in0.0 mm 0.58 in14.7 mm
05:20 PM 66.9°F19.4°C 66.1°F18.9°C 97% 11.4 mph SW18.3 kmh SW 21.3 mph34.3 kmh 29.70 in1005.8 mb 0.00 in0.0 mm 0.00 in0.0 mm 0.58 in14.7 mm
05:30 PM 66.9°F19.4°C 66.1°F18.9°C 97% 10.7 mph SW17.2 kmh SW 23.5 mph37.8 kmh 29.70 in1005.8 mb 0.00 in0.0 mm 0.00 in0.0 mm 0.58 in14.7 mm
05:40 PM 66.7°F19.3°C 65.9°F18.8°C 97% 8.3 mph SW13.4 kmh SW 19.7 mph31.7 kmh 29.70 in1005.8 mb 0.00 in0.0 mm 0.00 in0.0 mm 0.58 in14.7 mm
05:50 PM 66.7°F19.3°C 65.9°F18.8°C 97% 11.4 mph WSW18.3 kmh WSW 18.3 mph29.5 kmh 29.70 in1005.8 mb 0.00 in0.0 mm 0.00 in0.0 mm 0.58 in14.7 mm
06:00 PM 66.9°F19.4°C 65.5°F18.6°C 95% 9.2 mph WSW14.8 kmh WSW 18.3 mph29.5 kmh 29.70 in1005.8 mb 0.00 in0.0 mm 0.00 in0.0 mm 0.58 in14.7 mm
06:10 PM 66.9°F19.4°C 65.5°F18.6°C 95% 9.2 mph WSW14.8 kmh WSW 19.7 mph31.7 kmh 29.70 in1005.8 mb 0.00 in0.0 mm 0.00 in0.0 mm 0.58 in14.7 mm
06:20 PM 66.9°F19.4°C 65.2°F18.4°C 94% 12.1 mph WSW19.5 kmh WSW 19.7 mph31.7 kmh 29.70 in1005.8 mb 0.00 in0.0 mm 0.00 in0.0 mm 0.58 in14.7 mm
06:30 PM 66.7°F19.3°C 65.3°F18.5°C 95% 13.0 mph W20.9 kmh W 21.3 mph34.3 kmh 29.70 in1005.8 mb 0.00 in0.0 mm 0.00 in0.0 mm 0.58 in14.7 mm
06:40 PM 66.7°F19.3°C 65.6°F18.7°C 96% 9.8 mph WSW15.8 kmh WSW 18.3 mph29.5 kmh 29.71 in1006.1 mb 0.00 in0.0 mm 0.00 in0.0 mm 0.58 in14.7 mm
06:50 PM 66.7°F19.3°C 65.6°F18.7°C 96% 9.2 mph WSW14.8 kmh WSW 19.0 mph30.6 kmh 29.70 in1005.8 mb 0.00 in0.0 mm 0.00 in0.0 mm 0.58 in14.7 mm
07:00 PM 66.9°F19.4°C 65.8°F18.8°C 96% 9.2 mph SW14.8 kmh SW 17.4 mph28.0 kmh 29.70 in1005.8 mb 0.00 in0.0 mm 0.00 in0.0 mm 0.58 in14.7 mm
07:10 PM 66.7°F19.3°C 65.9°F18.8°C 97% 13.0 mph WSW20.9 kmh WSW 18.3 mph29.5 kmh 29.70 in1005.8 mb 0.00 in0.0 mm 0.00 in0.0 mm 0.58 in14.7 mm
07:20 PM 66.6°F19.2°C 66.0°F18.9°C 98% 12.1 mph SW19.5 kmh SW 19.7 mph31.7 kmh 29.70 in1005.8 mb 0.00 in0.0 mm 0.00 in0.0 mm 0.58 in14.7 mm
07:30 PM 66.4°F19.1°C 65.8°F18.8°C 98% 10.7 mph SW17.2 kmh SW 19.7 mph31.7 kmh 29.69 in1005.4 mb 0.00 in0.0 mm 0.00 in0.0 mm 0.58 in14.7 mm
07:40 PM 66.2°F19.0°C 65.6°F18.7°C 98% 7.6 mph SW12.2 kmh SW 19.7 mph31.7 kmh 29.70 in1005.8 mb 0.00 in0.0 mm 0.00 in0.0 mm 0.58 in14.7 mm
07:50 PM 65.7°F18.7°C 65.4°F18.6°C 99% 7.6 mph WSW12.2 kmh WSW 22.1 mph35.6 kmh 29.70 in1005.8 mb 0.00 in0.0 mm 0.00 in0.0 mm 0.58 in14.7 mm
08:00 PM 65.1°F18.4°C 64.9°F18.3°C 99% 11.4 mph W18.3 kmh W 19.7 mph31.7 kmh 29.70 in1005.8 mb 0.00 in0.0 mm 0.00 in0.0 mm 0.58 in14.7 mm
08:10 PM 65.1°F18.4°C 64.9°F18.3°C 99% 11.4 mph SW18.3 kmh SW 21.3 mph34.3 kmh 29.71 in1006.1 mb 0.00 in0.0 mm 0.00 in0.0 mm 0.58 in14.7 mm
08:20 PM 65.1°F18.4°C 64.9°F18.3°C 99% 7.6 mph SW12.2 kmh SW 16.8 mph27.0 kmh 29.71 in1006.1 mb 0.02 in0.5 mm 0.12 in3.0 mm 0.60 in15.2 mm
08:30 PM 66.2°F19.0°C 65.9°F18.8°C 99% 6.0 mph N9.7 kmh N 16.8 mph27.0 kmh 29.72 in1006.4 mb 0.02 in0.5 mm 0.00 in0.0 mm 0.60 in15.2 mm
08:40 PM 66.2°F19.0°C 65.9°F18.8°C 99% 7.6 mph NW12.2 kmh NW 11.4 mph18.3 kmh 29.72 in1006.4 mb 0.02 in0.5 mm 0.00 in0.0 mm 0.60 in15.2 mm
08:50 PM 66.6°F19.2°C 66.3°F19.1°C 99% 8.3 mph NNW13.4 kmh NNW 16.8 mph27.0 kmh 29.72 in1006.4 mb 0.02 in0.5 mm 0.00 in0.0 mm 0.60 in15.2 mm
09:00 PM 67.1°F19.5°C 66.8°F19.3°C 99% 5.4 mph NW8.7 kmh NW 14.5 mph23.3 kmh 29.73 in1006.8 mb 0.02 in0.5 mm 0.00 in0.0 mm 0.60 in15.2 mm
09:10 PM 67.3°F19.6°C 67.0°F19.4°C 99% 6.9 mph WSW11.1 kmh WSW 13.0 mph20.9 kmh 29.73 in1006.8 mb 0.02 in0.5 mm 0.00 in0.0 mm 0.60 in15.2 mm
09:20 PM 67.5°F19.7°C 67.2°F19.6°C 99% 6.0 mph W9.7 kmh W 13.0 mph20.9 kmh 29.73 in1006.8 mb 0.00 in0.0 mm 0.00 in0.0 mm 0.60 in15.2 mm
09:30 PM 67.5°F19.7°C 67.2°F19.6°C 99% 6.9 mph SW11.1 kmh SW 12.1 mph19.5 kmh 29.72 in1006.4 mb 0.00 in0.0 mm 0.00 in0.0 mm 0.60 in15.2 mm
09:40 PM 67.5°F19.7°C 67.2°F19.6°C 99% 6.9 mph SW11.1 kmh SW 15.2 mph24.5 kmh 29.73 in1006.8 mb 0.00 in0.0 mm 0.00 in0.0 mm 0.60 in15.2 mm
09:50 PM 67.5°F19.7°C 67.2°F19.6°C 99% 8.3 mph WSW13.4 kmh WSW 15.2 mph24.5 kmh 29.72 in1006.4 mb 0.00 in0.0 mm 0.00 in0.0 mm 0.60 in15.2 mm
10:00 PM 67.3°F19.6°C 67.0°F19.4°C 99% 8.3 mph WSW13.4 kmh WSW 15.2 mph24.5 kmh 29.72 in1006.4 mb 0.00 in0.0 mm 0.00 in0.0 mm 0.60 in15.2 mm
10:10 PM 67.3°F19.6°C 67.0°F19.4°C 99% 8.3 mph WSW13.4 kmh WSW 16.8 mph27.0 kmh 29.73 in1006.8 mb 0.00 in0.0 mm 0.00 in0.0 mm 0.60 in15.2 mm
10:20 PM 67.3°F19.6°C 67.0°F19.4°C 99% 6.0 mph NNW9.7 kmh NNW 13.6 mph21.9 kmh 29.73 in1006.8 mb 0.00 in0.0 mm 0.00 in0.0 mm 0.60 in15.2 mm
10:30 PM 67.6°F19.8°C 67.4°F19.7°C 99% 8.3 mph WSW13.4 kmh WSW 15.2 mph24.5 kmh 29.72 in1006.4 mb 0.00 in0.0 mm 0.00 in0.0 mm 0.60 in15.2 mm
10:40 PM 67.6°F19.8°C 67.4°F19.7°C 99% 9.2 mph WSW14.8 kmh WSW 14.5 mph23.3 kmh 29.73 in1006.8 mb 0.00 in0.0 mm 0.00 in0.0 mm 0.60 in15.2 mm
10:50 PM 67.5°F19.7°C 67.2°F19.6°C 99% 7.6 mph W12.2 kmh W 13.0 mph20.9 kmh 29.73 in1006.8 mb 0.00 in0.0 mm 0.00 in0.0 mm 0.60 in15.2 mm
11:00 PM 67.5°F19.7°C 66.9°F19.4°C 98% 7.6 mph NNW12.2 kmh NNW 15.9 mph25.6 kmh 29.73 in1006.8 mb 0.00 in0.0 mm 0.00 in0.0 mm 0.47 in11.9 mm
11:10 PM 67.1°F19.5°C 66.8°F19.3°C 99% 10.7 mph WSW17.2 kmh WSW 13.6 mph21.9 kmh 29.73 in1006.8 mb 0.00 in0.0 mm 0.00 in0.0 mm 0.47 in11.9 mm
11:20 PM 67.3°F19.6°C 66.7°F19.3°C 98% 7.6 mph WSW12.2 kmh WSW 14.5 mph23.3 kmh 29.73 in1006.8 mb 0.00 in0.0 mm 0.00 in0.0 mm 0.47 in11.9 mm
11:30 PM 67.5°F19.7°C 66.9°F19.4°C 98% 11.4 mph WSW18.3 kmh WSW 16.8 mph27.0 kmh 29.73 in1006.8 mb 0.00 in0.0 mm 0.00 in0.0 mm 0.47 in11.9 mm
11:40 PM 66.7°F19.3°C 66.5°F19.2°C 99% 8.3 mph SW13.4 kmh SW 15.9 mph25.6 kmh 29.73 in1006.8 mb 0.00 in0.0 mm 0.00 in0.0 mm 0.47 in11.9 mm
11:50 PM 66.2°F19.0°C 65.9°F18.8°C 99% 7.6 mph WSW12.2 kmh WSW 13.6 mph21.9 kmh 29.73 in1006.8 mb 0.00 in0.0 mm 0.00 in0.0 mm 0.47 in11.9 mm